James Clark Ross — ZDLP — position and weather

sailwx.info

Track history (hours):
 
Tides and Currents Weather Stations Pressure Air Temp Water Temp Dewpoint Dewpoint Depression Visibility Wind Speed Wind Dir Waves Ship Positions

Oceanographic research ship James Clark Ross (UK)

Detailed information on ship capabilities available from University of Delaware's Ocean Information Center and ARCUS's ALIAS (Arctic Logistics Information and Support) project.

Last reported at 2019-Jul-20 21:11 UTC. Time now 2019-Jul-22 14:45 UTC.
Position N 79°21' E 009°17'.

Length 99 m; beam 18.8 m; draft 6.3 m.

Type: Ship. MMSI: 740339000.

Date/timePositionNaut miles runAvg speedWind from/ knotsBaromVisibWave heightAir tempDewpointWater temp
2019-Jul-20 21:11N 79°21' E 009°17'211.7
2019-Jul-20 21:00N 79°19' E 009°17'611.6
2019-Jul-20 20:30N 79°13' E 009°16'612.1
2019-Jul-20 20:00N 79°07' E 009°15'612.6
2019-Jul-20 19:30N 79°01' E 009°14'612.7
2019-Jul-20 19:00N 78°55' E 009°12'612.7
2019-Jul-20 18:30N 78°48' E 009°11'2712.2
2019-Jul-20 16:18N 78°23' E 009°59'412.4
2019-Jul-20 16:00N 78°20' E 010°08'612.5
2019-Jul-20 15:29N 78°14' E 010°23'612.6
2019-Jul-20 15:00N 78°09' E 010°37'612.5
2019-Jul-20 14:30N 78°03' E 010°52'510.6
2019-Jul-20 14:00N 78°00' E 011°13'612.4
2019-Jul-20 13:30N 78°02' E 011°41'612.4
2019-Jul-20 13:00N 78°04' E 012°10'612.3
2019-Jul-20 12:30N 78°05' E 012°39'612.5
2019-Jul-20 12:00N 78°07' E 013°09'612.3
2019-Jul-20 11:30N 78°08' E 013°38'612.4
2019-Jul-20 11:00N 78°10' E 014°06'612.3
2019-Jul-20 10:30N 78°13' E 014°34'612.4
2019-Jul-20 10:00N 78°15' E 015°02'612.0
2019-Jul-20 09:30N 78°16' E 015°31'2 3.5
2019-Jul-20 09:00N 78°16' E 015°23'511.2
2019-Jul-20 08:30N 78°15' E 014°57'611.4
2019-Jul-20 08:00N 78°13' E 014°31'611.6
2019-Jul-20 07:30N 78°10' E 014°04'611.4
2019-Jul-20 07:00N 78°08' E 013°40'611.9
2019-Jul-20 06:30N 78°05' E 013°15'611.4
2019-Jul-20 05:59N 78°02' E 012°51'510.5
2019-Jul-20 05:30N 77°59' E 012°30'610.5
2019-Jul-20 04:58N 77°54' E 012°30'510.8
2019-Jul-20 04:30N 77°48' E 012°32'511.0
2019-Jul-20 04:00N 77°43' E 012°33'510.9
2019-Jul-20 03:30N 77°37' E 012°34'511.0
2019-Jul-20 03:00N 77°32' E 012°35'611.4
2019-Jul-20 02:30N 77°26' E 012°37'611.0
2019-Jul-20 02:00N 77°21' E 012°38'510.2
2019-Jul-20 01:30N 77°17' E 012°52'510.3
2019-Jul-20 01:00N 77°12' E 013°05'510.5
2019-Jul-20 00:30N 77°08' E 013°19'510.2
2019-Jul-20 00:00N 77°04' E 013°32'510.4
2019-Jul-19 23:29N 76°60' E 013°46'510.5
2019-Jul-19 23:00N 76°55' E 013°59'510.4
2019-Jul-19 22:30N 76°51' E 014°12'611.1
2019-Jul-19 22:00N 76°46' E 014°26'510.8
2019-Jul-19 21:30N 76°42' E 014°40'510.9
2019-Jul-19 21:00N 76°38' E 014°52'611.1
2019-Jul-19 20:29N 76°33' E 015°06'511.4
2019-Jul-19 20:00N 76°29' E 015°21'611.1
2019-Jul-19 19:30N 76°24' E 015°34'  
Track history (hours):
 
Tides and Currents Weather Stations Pressure Air Temp Water Temp Dewpoint Dewpoint Depression Visibility Wind Speed Wind Dir Waves Ship Positions

Oceanographic research ship James Clark Ross (UK)

Detailed information on ship capabilities available from University of Delaware's Ocean Information Center and ARCUS's ALIAS (Arctic Logistics Information and Support) project.

Last reported at 2019-Jul-20 21:11 UTC. Time now 2019-Jul-22 14:45 UTC.
Position N 79°21' E 009°17'.

Length 99 m; beam 18.8 m; draft 6.3 m.

Type: Ship. MMSI: 740339000.

Date/timePositionNaut miles runAvg speedWind from/ knotsBaromVisibWave heightAir tempDewpointWater temp
2019-Jul-20 21:11N 79°21' E 009°17'211.7
2019-Jul-20 21:00N 79°19' E 009°17'611.6
2019-Jul-20 20:30N 79°13' E 009°16'612.1
2019-Jul-20 20:00N 79°07' E 009°15'612.6
2019-Jul-20 19:30N 79°01' E 009°14'612.7
2019-Jul-20 19:00N 78°55' E 009°12'612.7
2019-Jul-20 18:30N 78°48' E 009°11'2712.2
2019-Jul-20 16:18N 78°23' E 009°59'412.4
2019-Jul-20 16:00N 78°20' E 010°08'612.5
2019-Jul-20 15:29N 78°14' E 010°23'612.6
2019-Jul-20 15:00N 78°09' E 010°37'612.5
2019-Jul-20 14:30N 78°03' E 010°52'510.6
2019-Jul-20 14:00N 78°00' E 011°13'612.4
2019-Jul-20 13:30N 78°02' E 011°41'612.4
2019-Jul-20 13:00N 78°04' E 012°10'612.3
2019-Jul-20 12:30N 78°05' E 012°39'612.5
2019-Jul-20 12:00N 78°07' E 013°09'612.3
2019-Jul-20 11:30N 78°08' E 013°38'612.4
2019-Jul-20 11:00N 78°10' E 014°06'612.3
2019-Jul-20 10:30N 78°13' E 014°34'612.4
2019-Jul-20 10:00N 78°15' E 015°02'612.0
2019-Jul-20 09:30N 78°16' E 015°31'2 3.5
2019-Jul-20 09:00N 78°16' E 015°23'511.2
2019-Jul-20 08:30N 78°15' E 014°57'611.4
2019-Jul-20 08:00N 78°13' E 014°31'611.6
2019-Jul-20 07:30N 78°10' E 014°04'611.4
2019-Jul-20 07:00N 78°08' E 013°40'611.9
2019-Jul-20 06:30N 78°05' E 013°15'611.4
2019-Jul-20 05:59N 78°02' E 012°51'510.5
2019-Jul-20 05:30N 77°59' E 012°30'610.5
2019-Jul-20 04:58N 77°54' E 012°30'510.8
2019-Jul-20 04:30N 77°48' E 012°32'511.0
2019-Jul-20 04:00N 77°43' E 012°33'510.9
2019-Jul-20 03:30N 77°37' E 012°34'511.0
2019-Jul-20 03:00N 77°32' E 012°35'611.4
2019-Jul-20 02:30N 77°26' E 012°37'611.0
2019-Jul-20 02:00N 77°21' E 012°38'510.2
2019-Jul-20 01:30N 77°17' E 012°52'510.3
2019-Jul-20 01:00N 77°12' E 013°05'510.5
2019-Jul-20 00:30N 77°08' E 013°19'510.2
2019-Jul-20 00:00N 77°04' E 013°32'510.4
2019-Jul-19 23:29N 76°60' E 013°46'510.5
2019-Jul-19 23:00N 76°55' E 013°59'510.4
2019-Jul-19 22:30N 76°51' E 014°12'611.1
2019-Jul-19 22:00N 76°46' E 014°26'510.8
2019-Jul-19 21:30N 76°42' E 014°40'510.9
2019-Jul-19 21:00N 76°38' E 014°52'611.1
2019-Jul-19 20:29N 76°33' E 015°06'511.4
2019-Jul-19 20:00N 76°29' E 015°21'611.1
2019-Jul-19 19:30N 76°24' E 015°34'  

Dump ship's entire track history